Latest Weather Observations for Perth

IDW60801

Issued at 7:02 am WST Friday 27 February 2015 (issued every 30 minutes, with the page automatically refreshed every 10 minutes)

About weather observations | Map of weather stations | Latest weather observations for WA | Other Formats
Station Details ID: 009225 Name: PERTH METRO Lat: -31.92 Lon: 115.87 Height: 24.9 m
Data from the previous 72 hours. | See also: Recent months at Perth
Date/Time
WST
Temp
°C
App
Temp
°C
Dew
Point
Rel
Hum
%
Delta-T
°C
Wind Press
QNH
hPa
Press
MSL
hPa
Rain
since 9 am
mm
Dir
 
Spd
km/h
Gust
km/h
Spd
kts
Gust
kts
27/07:00am 21.7 22.3 18.7 83 1.9 SW 13 26 7 14 1008.0 1007.9 0.0
27/06:30am 21.3 23.4 18.9 86 1.5 WSW 6 11 3 6 1007.6 1007.5 0.0
27/06:00am 21.2 22.6 18.6 85 1.6 SW 9 15 5 8 1007.2 1007.1 0.0
27/05:30am 21.3 22.3 18.7 85 1.6 SW 11 19 6 10 1007.1 1007.0 0.0
27/05:00am 21.4 22.2 19.0 86 1.5 SW 13 20 7 11 1006.8 1006.7 0.0
27/04:30am 21.4 21.8 19.0 86 1.5 SW 15 22 8 12 1006.6 1006.5 0.0
27/04:00am 21.4 22.7 19.3 88 1.3 SW 11 17 6 9 1006.3 1006.2 0.0
27/03:30am 21.2 21.7 19.3 89 1.2 WSW 15 22 8 12 1006.0 1005.9 0.0
27/03:00am 21.9 22.9 19.5 86 1.5 WSW 13 20 7 11 1005.7 1005.6 0.0
27/02:30am 22.1 23.2 19.6 86 1.6 WSW 13 22 7 12 1005.7 1005.6 0.0
27/02:00am 22.6 24.3 20.1 86 1.6 WSW 11 17 6 9 1005.6 1005.5 0.0
27/01:30am 22.7 25.3 20.4 87 1.5 W 7 13 4 7 1005.8 1005.7 0.0
27/01:00am 22.7 25.2 20.2 86 1.6 W 7 15 4 8 1006.0 1005.9 0.0
27/12:30am 22.1 25.3 19.8 87 1.5 WNW 2 7 1 4 1006.1 1006.0 0.0
27/12:00am 22.2 24.6 19.6 85 1.7 NW 6 9 3 5 1006.2 1006.1 0.0
 
Date/Time
WST
Temp
°C
App
Temp
°C
Dew
Point
Rel
Hum
%
Delta-T
°C
Wind Press
QNH
hPa
Press
MSL
hPa
Rain
since 9 am
mm
Dir
 
Spd
km/h
Gust
km/h
Spd
kts
Gust
kts
26/11:30pm 22.3 24.6 19.5 84 1.8 WNW 6 9 3 5 1006.3 1006.2 0.0
26/11:00pm 22.4 24.5 19.4 83 1.9 W 7 13 4 7 1006.2 1006.1 0.0
26/10:30pm 22.5 24.7 19.5 83 1.9 W 7 13 4 7 1006.2 1006.1 0.0
26/10:00pm 22.7 24.7 20.0 85 1.7 W 9 11 5 6 1006.4 1006.3 0.0
26/09:30pm 23.0 25.2 20.3 85 1.7 W 9 19 5 10 1006.6 1006.5 0.0
26/09:00pm 23.3 25.5 20.4 84 1.9 W 9 13 5 7 1006.4 1006.3 0.0
26/08:30pm 23.6 26.3 20.7 84 1.9 W 7 11 4 6 1006.2 1006.1 0.0
26/08:00pm 23.8 26.9 21.1 85 1.8 W 6 9 3 5 1005.9 1005.8 0.0
26/07:30pm 24.4 27.1 21.3 83 2.0 WSW 9 11 5 6 1005.6 1005.5 0.0
26/07:00pm 24.7 27.2 21.0 80 2.4 W 9 15 5 8 1005.0 1004.9 0.0
26/06:30pm 25.5 28.5 21.2 77 2.8 W 7 13 4 7 1005.0 1004.9 0.0
26/06:00pm 25.8 28.3 21.0 75 3.2 W 9 15 5 8 1004.8 1004.7 0.0
26/05:30pm 26.8 29.3 21.1 71 3.8 W 9 13 5 7 1004.8 1004.7 0.0
26/05:00pm 27.2 29.8 21.2 69 4.0 W 9 15 5 8 1005.0 1004.9 0.0
26/04:30pm 27.3 29.0 20.9 68 4.2 W 13 19 7 10 1004.9 1004.8 0.0
26/04:00pm 27.9 29.6 20.2 63 5.1 W 11 19 6 10 1004.9 1004.8 0.0
26/03:30pm 29.1 30.2 19.7 57 6.1 W 13 19 7 10 1004.8 1004.7 0.0
26/03:00pm 29.0 29.3 18.7 53 6.7 W 15 22 8 12 1004.7 1004.6 0.0
26/02:30pm 29.3 30.6 20.2 58 6.0 WNW 13 22 7 12 1004.9 1004.8 0.0
26/02:00pm 30.1 31.4 20.1 55 6.6 W 13 22 7 12 1005.0 1004.9 0.0
26/01:30pm 30.3 31.4 20.5 55 6.5 W 15 24 8 13 1005.1 1005.0 0.0
26/01:00pm 30.5 31.1 19.5 51 7.2 WNW 15 28 8 15 1005.4 1005.3 0.0
26/12:30pm 30.9 31.7 19.9 52 7.2 W 15 26 8 14 1005.7 1005.6 0.0
26/12:00pm 31.4 33.0 20.7 53 7.2 W 13 22 7 12 1005.9 1005.8 0.0
26/11:30am 33.3 35.3 21.5 50 8.0 W 13 19 7 10 1006.0 1005.9 0.0
26/11:00am 32.9 35.0 20.1 47 8.5 WNW 9 13 5 7 1006.1 1006.0 0.0
26/10:30am 32.3 34.8 19.9 48 8.2 NNE 6 11 3 6 1006.5 1006.4 0.0
26/10:00am 31.1 33.9 20.4 53 7.1 NNE 6 9 3 5 1006.7 1006.6 0.0
26/09:30am 29.6 32.5 20.7 58 5.9 NNE 6 9 3 5 1006.9 1006.8 0.0
26/09:00am 28.8 31.6 20.8 62 5.3 NE 7 13 4 7 1007.1 1007.0 0.0
26/08:30am 28.1 30.9 20.4 63 5.1 NE 6 9 3 5 1007.0 1006.9 0.0
26/08:00am 26.7 29.5 20.8 70 3.9 NE 7 11 4 6 1007.0 1006.9 0.0
26/07:30am 25.7 28.5 20.5 73 3.4 ENE 6 13 3 7 1006.9 1006.8 0.0
26/07:00am 23.2 27.7 21.5 90 1.1 CALM 0 0 0 0 1006.9 1006.8 0.0
26/06:30am 21.8 25.8 20.6 93 0.8 CALM 0 0 0 0 1006.6 1006.5 0.0
26/06:00am 21.8 25.7 20.4 92 0.9 CALM 0 0 0 0 1006.4 1006.3 0.0
26/05:30am 21.8 25.7 20.4 92 0.9 CALM 0 0 0 0 1006.5 1006.4 0.0
26/05:00am 22.0 26.0 20.5 91 1.0 CALM 0 0 0 0 1006.4 1006.3 0.0
26/04:30am 22.1 26.1 20.6 91 1.0 CALM 0 0 0 0 1006.3 1006.2 0.0
26/04:00am 22.4 26.5 20.7 90 1.1 CALM 0 0 0 0 1006.2 1006.1 0.0
26/03:30am 22.5 26.6 20.8 90 1.1 CALM 0 0 0 0 1006.1 1006.0 0.0
26/03:00am 22.4 26.1 20.7 90 1.1 N 2 6 1 3 1006.2 1006.1 0.0
26/02:30am 22.6 26.7 20.7 89 1.2 CALM 0 0 0 0 1006.1 1006.0 0.0
26/02:00am 22.9 27.0 20.8 88 1.4 CALM 0 6 0 3 1006.2 1006.1 0.0
26/01:30am 22.8 26.9 20.7 88 1.4 CALM 0 6 0 3 1006.1 1006.0 0.0
26/01:00am 23.0 26.7 20.7 87 1.5 N 2 7 1 4 1006.1 1006.0 0.0
26/12:30am 23.4 26.3 20.7 85 1.8 NNE 6 7 3 4 1006.6 1006.5 0.0
26/12:00am 23.5 26.3 20.8 85 1.8 NNE 7 9 4 5 1007.0 1006.9 0.0
 
Date/Time
WST
Temp
°C
App
Temp
°C
Dew
Point
Rel
Hum
%
Delta-T
°C
Wind Press
QNH
hPa
Press
MSL
hPa
Rain
since 9 am
mm
Dir
 
Spd
km/h
Gust
km/h
Spd
kts
Gust
kts
25/11:30pm 23.7 26.7 20.8 84 1.9 SSW 6 9 3 5 1007.3 1007.2 0.0
25/11:00pm 23.8 26.6 20.5 82 2.2 SW 6 9 3 5 1006.9 1006.8 0.0
25/10:30pm 24.0 26.7 20.7 82 2.2 WSW 7 13 4 7 1007.1 1007.0 0.0
25/10:00pm 24.9 27.8 21.0 79 2.6 W 7 13 4 7 1007.1 1007.0 0.0
25/09:30pm 26.1 29.3 20.4 71 3.7 W 4 7 2 4 1007.3 1007.2 0.0
25/09:00pm 26.8 29.9 20.2 67 4.3 SW 4 7 2 4 1007.5 1007.4 0.0
25/08:30pm 26.3 30.1 20.2 69 4.0 CALM 0 6 0 3 1007.4 1007.3 0.0
25/08:00pm 26.0 28.5 19.9 69 4.0 SW 6 7 3 4 1007.2 1007.1 0.0
25/07:30pm 27.7 30.7 19.2 60 5.5 SW 2 6 1 3 1006.6 1006.5 0.0
25/07:00pm 28.4 30.4 18.8 56 6.2 SW 6 7 3 4 1006.4 1006.3 0.0
25/06:30pm 29.5 31.2 18.6 52 7.0 SW 7 9 4 5 1006.1 1006.0 0.0
25/06:00pm 30.1 31.2 17.9 48 7.8 WSW 9 17 5 9 1006.1 1006.0 0.0
25/05:30pm 31.5 31.8 17.0 41 9.2 SSW 11 17 6 9 1006.0 1005.9 0.0
25/05:00pm 32.0 32.6 16.7 40 9.7 SW 9 13 5 7 1005.8 1005.7 0.0
25/04:30pm 31.6 33.5 18.6 46 8.4 W 6 11 3 6 1005.7 1005.6 0.0
25/04:00pm 32.0 32.9 17.5 42 9.3 W 9 15 5 8 1005.7 1005.6 0.0
25/03:30pm 32.8 34.2 18.6 43 9.2 W 9 17 5 9 1005.9 1005.8 0.0
25/03:00pm 32.0 32.6 18.6 45 8.7 WSW 13 19 7 10 1006.0 1005.9 0.0
25/02:30pm 33.6 33.7 16.5 36 10.8 WSW 11 20 6 11 1006.1 1006.0 0.0
25/02:00pm 34.6 33.9 15.5 32 12.0 W 13 20 7 11 1006.3 1006.2 0.0
25/01:30pm 34.9 34.7 15.7 31 12.1 W 11 17 6 9 1006.5 1006.4 0.0
25/01:00pm 35.4 35.7 17.1 33 11.8 W 11 20 6 11 1006.6 1006.5 0.0
25/12:30pm 34.9 36.0 18.0 36 11.0 WSW 9 13 5 7 1006.7 1006.6 0.0
25/12:00pm 33.5 35.3 19.6 44 9.2 SSW 9 15 5 8 1007.1 1007.0 0.0
25/11:30am 32.7 34.7 19.9 46 8.5 WSW 9 20 5 11 1007.7 1007.6 0.0
25/11:00am 31.3 33.6 20.6 53 7.1 SW 9 17 5 9 1007.9 1007.8 0.0
25/10:30am 31.3 33.3 19.9 50 7.5 SW 9 17 5 9 1008.4 1008.3 0.0
25/10:00am 29.9 32.7 21.6 61 5.6 WSW 9 17 5 9 1008.4 1008.3 0.0
25/09:30am 29.2 32.2 21.9 64 4.9 WSW 9 17 5 9 1008.4 1008.3 0.0
25/09:00am 29.2 32.4 21.2 62 5.3 SW 6 9 3 5 1008.5 1008.4 0.0
25/08:30am 27.2 31.4 21.0 69 4.1 CALM 0 0 0 0 1008.4 1008.3 0.0
25/08:00am 25.9 29.7 22.4 81 2.4 ENE 6 9 3 5 1008.4 1008.3 0.0
25/07:30am 24.1 27.8 22.2 89 1.3 NNE 6 7 3 4 1008.4 1008.3 0.0
25/07:00am 22.6 27.1 21.6 94 0.7 CALM 0 6 0 3 1008.2 1008.1 0.0
25/06:30am 21.9 26.2 21.1 95 0.5 CALM 0 0 0 0 1008.0 1007.9 0.0
25/06:00am 21.8 25.6 21.0 95 0.5 NNW 2 7 1 4 1007.5 1007.4 0.0
25/05:30am 21.7 25.9 20.9 95 0.5 CALM 0 6 0 3 1007.1 1007.0 0.0
25/05:00am 21.7 25.9 20.9 95 0.5 CALM 0 6 0 3 1007.2 1007.1 0.0
25/04:30am 21.9 26.1 20.9 94 0.7 CALM 0 0 0 0 1007.1 1007.0 0.0
25/04:00am 21.9 26.1 20.9 94 0.7 CALM 0 0 0 0 1006.8 1006.7 0.0
25/03:30am 22.5 26.9 21.3 93 0.8 CALM 0 0 0 0 1007.1 1007.0 0.0
25/03:00am 22.5 26.8 21.1 92 0.9 CALM 0 0 0 0 1007.0 1006.9 0.0
25/02:30am 23.1 26.8 21.4 90 1.1 WSW 4 9 2 5 1007.1 1007.0 0.0
25/02:00am 23.3 26.4 21.4 89 1.3 WSW 7 13 4 7 1006.9 1006.8 0.0
25/01:30am 23.7 27.0 21.4 87 1.5 NW 6 7 3 4 1007.2 1007.1 0.0
25/01:00am 23.4 27.5 20.7 85 1.8 CALM 0 0 0 0 1007.5 1007.4 0.0
25/12:30am 23.9 28.0 20.8 83 2.0 CALM 0 0 0 0 1007.4 1007.3 0.0
25/12:00am 24.5 28.7 21.0 81 2.3 CALM 0 6 0 3 1007.6 1007.5 0.0
 
Date/Time
WST
Temp
°C
App
Temp
°C
Dew
Point
Rel
Hum
%
Delta-T
°C
Wind Press
QNH
hPa
Press
MSL
hPa
Rain
since 9 am
mm
Dir
 
Spd
km/h
Gust
km/h
Spd
kts
Gust
kts
24/11:30pm 24.7 27.8 21.0 80 2.4 N 6 9 3 5 1008.1 1008.0 0.0
24/11:00pm 24.6 28.8 20.9 80 2.4 CALM 0 0 0 0 1007.9 1007.8 0.0
24/10:30pm 25.1 28.2 21.0 78 2.7 N 6 9 3 5 1008.4 1008.3 0.0
24/10:00pm 25.4 28.3 21.1 77 2.8 N 7 11 4 6 1008.6 1008.5 0.0
24/09:30pm 25.1 28.1 21.2 79 2.6 NW 7 11 4 6 1009.0 1008.9 0.0
24/09:00pm 25.5 29.7 21.0 76 3.0 CALM 0 6 0 3 1008.5 1008.4 0.0
24/08:30pm 25.7 29.1 20.9 75 3.2 W 4 11 2 6 1007.8 1007.7 0.0
24/08:00pm 26.0 28.9 20.6 72 3.5 WNW 6 11 3 6 1007.7 1007.6 0.0
24/07:30pm 26.3 29.0 20.6 71 3.7 NW 7 11 4 6 1007.5 1007.4 0.0
24/07:00pm 26.9 29.1 20.3 67 4.3 WNW 9 13 5 7 1007.3 1007.2 0.0
24/06:30pm 27.3 30.2 19.9 64 4.8 W 4 9 2 5 1007.4 1007.3 0.0
24/06:00pm 28.0 30.3 19.8 61 5.4 W 7 15 4 8 1007.3 1007.2 0.0
24/05:30pm 28.8 30.4 19.1 55 6.3 WSW 9 13 5 7 1007.3 1007.2 0.0
24/05:00pm 28.9 30.0 18.9 54 6.5 WSW 11 17 6 9 1007.3 1007.2 0.0
24/04:30pm 30.0 30.7 18.8 51 7.2 WNW 13 24 7 13 1007.2 1007.1 0.0
24/04:00pm 31.1 31.3 18.5 47 8.2 WNW 15 30 8 16 1007.1 1007.0 0.0
24/03:30pm 32.4 31.9 18.6 44 9.0 NW 19 32 10 17 1006.9 1006.8 0.0
24/03:00pm 33.9 33.3 18.8 41 9.9 NW 20 39 11 21 1006.9 1006.8 0.0
24/02:30pm 33.4 32.4 18.0 40 10.0 WNW 20 41 11 22 1007.0 1006.9 0.0
24/02:00pm 34.0 34.0 18.9 41 9.9 WNW 17 35 9 19 1007.1 1007.0 0.0
24/01:30pm 33.9 33.5 18.8 41 9.9 WNW 19 35 10 19 1007.2 1007.1 0.0
24/01:00pm 33.5 32.5 17.6 38 10.2 NW 19 33 10 18 1007.4 1007.3 0.0
24/12:30pm 35.0 34.6 18.1 36 11.0 WNW 17 35 9 19 1007.4 1007.3 0.0
24/12:00pm 36.0 34.9 17.2 33 12.1 WNW 19 32 10 17 1007.8 1007.7 0.0
24/11:30am 38.1 37.6 15.8 26 14.2 WNW 13 24 7 13 1007.7 1007.6 0.0
24/11:00am 38.2 37.5 15.3 25 14.5 NNW 13 22 7 12 1007.9 1007.8 0.0
24/10:30am 35.7 34.8 14.9 29 13.0 NNE 13 30 7 16 1008.2 1008.1 0.0
24/10:00am 34.6 33.2 15.5 32 12.0 NE 17 28 9 15 1008.2 1008.1 0.0
24/09:30am 32.7 31.6 15.2 34 10.8 NE 15 32 8 17 1008.6 1008.5 0.0
24/09:00am 30.8 29.1 14.8 37 9.8 NE 17 24 9 13 1008.5 1008.4 0.0
24/08:30am 28.4 27.0 13.5 40 8.9 ENE 13 22 7 12 1008.8 1008.7 0.0
24/08:00am 26.7 25.2 14.1 46 7.5 ENE 15 26 8 14 1008.8 1008.7 0.0
24/07:30am 25.3 23.9 13.5 48 6.9 ENE 13 22 7 12 1008.9 1008.8 0.0

Other Formats:

Comma delimited format used in spreadsheet applications
http://www.bom.gov.au/fwo/IDW60801/IDW60801.94608.axf

JavaScript Object Notation format (JSON) in row-major order
http://www.bom.gov.au/fwo/IDW60801/IDW60801.94608.json